createdAt,value
2017-05-30T00:00:18.744Z,0
2017-05-30T00:01:28.784Z,0
2017-05-30T00:02:39.322Z,0
2017-05-30T00:03:49.312Z,0
2017-05-30T00:04:59.615Z,0
2017-05-30T00:06:09.889Z,0
2017-05-30T00:07:19.870Z,0
2017-05-30T00:08:30.424Z,0
2017-05-30T00:09:40.705Z,0
2017-05-30T00:10:50.987Z,0
2017-05-30T00:12:00.959Z,0
2017-05-30T00:13:11.241Z,0
2017-05-30T00:14:21.166Z,0
2017-05-30T00:15:31.146Z,0
2017-05-30T00:16:41.116Z,0
2017-05-30T00:17:51.103Z,0
2017-05-30T00:19:00.759Z,0
2017-05-30T00:20:11.302Z,0
2017-05-30T00:21:21.589Z,0
2017-05-30T00:22:31.872Z,0
2017-05-30T00:23:42.193Z,0
2017-05-30T00:24:52.194Z,0
2017-05-30T00:26:02.418Z,0
2017-05-30T00:27:12.700Z,0
2017-05-30T00:28:23.009Z,0
2017-05-30T00:29:33.295Z,0
2017-05-30T00:30:43.576Z,0
2017-05-30T00:31:54.181Z,0
2017-05-30T00:33:04.477Z,0
2017-05-30T00:34:14.457Z,0
2017-05-30T00:35:24.748Z,0
2017-05-30T00:36:35.037Z,0
2017-05-30T00:37:45.279Z,0
2017-05-30T00:38:55.567Z,0
2017-05-30T00:40:05.864Z,0
2017-05-30T00:41:16.156Z,0
2017-05-30T00:42:26.127Z,0
2017-05-30T00:43:36.665Z,0
2017-05-30T00:44:46.972Z,0
2017-05-30T00:45:57.263Z,0
2017-05-30T00:47:07.565Z,0
2017-05-30T00:48:17.860Z,0
2017-05-30T00:49:28.091Z,0
2017-05-30T00:50:38.369Z,0
2017-05-30T00:51:48.338Z,0
2017-05-30T00:52:58.637Z,0
2017-05-30T00:54:08.914Z,0
2017-05-30T00:55:19.458Z,0
2017-05-30T00:56:29.744Z,0
2017-05-30T00:57:40.038Z,0
2017-05-30T00:58:50.314Z,0
2017-05-30T01:00:00.606Z,0
2017-05-30T01:01:11.152Z,0
2017-05-30T01:02:21.436Z,0
2017-05-30T01:03:31.506Z,0
2017-05-30T01:04:41.790Z,0
2017-05-30T01:05:52.077Z,0
2017-05-30T01:07:02.295Z,0
2017-05-30T01:08:12.264Z,0
2017-05-30T01:09:22.575Z,0
2017-05-30T01:10:32.870Z,0
2017-05-30T01:11:43.166Z,0
2017-05-30T01:12:53.856Z,0
2017-05-30T01:14:03.520Z,0
2017-05-30T01:15:13.804Z,0
2017-05-30T01:16:24.106Z,0
2017-05-30T01:17:34.081Z,0
2017-05-30T01:18:44.303Z,0
2017-05-30T01:19:54.649Z,0
2017-05-30T01:21:04.620Z,0
2017-05-30T01:22:14.906Z,0
2017-05-30T01:23:24.579Z,0
2017-05-30T01:24:34.802Z,0
2017-05-30T01:25:44.780Z,0
2017-05-30T01:26:55.087Z,0
2017-05-30T01:28:05.367Z,0
2017-05-30T01:29:15.664Z,0
2017-05-30T01:30:26.208Z,0
2017-05-30T01:31:36.499Z,0
2017-05-30T01:32:46.797Z,0
2017-05-30T01:33:57.086Z,0
2017-05-30T01:35:07.056Z,0
2017-05-30T01:36:17.295Z,0
2017-05-30T01:37:27.278Z,0
2017-05-30T01:38:37.260Z,0
2017-05-30T01:39:47.547Z,0
2017-05-30T01:40:57.525Z,0
2017-05-30T01:42:07.742Z,0
2017-05-30T01:43:18.028Z,0
2017-05-30T01:44:28.323Z,0
2017-05-30T01:45:38.281Z,0
2017-05-30T01:46:48.250Z,0
2017-05-30T01:47:58.791Z,0
2017-05-30T01:49:09.086Z,0
2017-05-30T01:50:19.371Z,0
2017-05-30T01:51:29.659Z,0
2017-05-30T01:52:40.021Z,0
2017-05-30T01:53:50.562Z,0
2017-05-30T01:55:00.854Z,0
2017-05-30T01:56:11.143Z,0
2017-05-30T01:57:21.436Z,0
2017-05-30T01:58:31.725Z,0
2017-05-30T01:59:42.272Z,0
2017-05-30T02:00:51.624Z,0
2017-05-30T02:02:01.905Z,0
2017-05-30T02:03:11.870Z,0
2017-05-30T02:04:22.164Z,0
2017-05-30T02:05:32.720Z,0
2017-05-30T02:06:43.004Z,0
2017-05-30T02:07:53.297Z,0
2017-05-30T02:09:03.579Z,0
2017-05-30T02:10:13.562Z,0
2017-05-30T02:11:24.099Z,0
2017-05-30T02:12:34.384Z,0
2017-05-30T02:13:44.364Z,0
2017-05-30T02:14:54.648Z,0
2017-05-30T02:16:04.626Z,0
2017-05-30T02:17:15.158Z,0
2017-05-30T02:18:25.445Z,0
2017-05-30T02:19:35.728Z,0
2017-05-30T02:20:46.033Z,0
2017-05-30T02:21:56.001Z,0
2017-05-30T02:23:06.542Z,0
2017-05-30T02:24:16.830Z,0
2017-05-30T02:25:27.107Z,0
2017-05-30T02:26:37.079Z,0
2017-05-30T02:27:47.361Z,0
2017-05-30T02:28:57.589Z,0
2017-05-30T02:30:07.878Z,0
2017-05-30T02:31:17.852Z,0
2017-05-30T02:32:27.829Z,0
2017-05-30T02:33:38.111Z,0
2017-05-30T02:34:48.641Z,0
2017-05-30T02:35:58.931Z,0
2017-05-30T02:37:09.214Z,0
2017-05-30T02:38:19.492Z,0
2017-05-30T02:39:29.776Z,0
2017-05-30T02:40:40.317Z,0
2017-05-30T02:41:50.593Z,0
2017-05-30T02:43:00.889Z,0
2017-05-30T02:44:11.180Z,0
2017-05-30T02:45:21.473Z,0
2017-05-30T02:46:32.015Z,0
2017-05-30T02:47:41.995Z,0
2017-05-30T02:48:52.277Z,0
2017-05-30T02:50:02.560Z,0
2017-05-30T02:51:12.523Z,0
2017-05-30T02:52:23.062Z,0
2017-05-30T02:53:33.350Z,0
2017-05-30T02:54:43.628Z,0
2017-05-30T02:55:53.908Z,0
2017-05-30T02:57:04.201Z,0
2017-05-30T02:58:14.431Z,0
2017-05-30T02:59:24.718Z,0
2017-05-30T03:00:34.686Z,0
2017-05-30T03:01:44.967Z,0
2017-05-30T03:02:54.947Z,0
2017-05-30T03:04:05.492Z,0
2017-05-30T03:05:15.801Z,0
2017-05-30T03:06:26.087Z,0
2017-05-30T03:07:36.366Z,0
2017-05-30T03:08:46.650Z,0
2017-05-30T03:09:57.199Z,0
2017-05-30T03:11:07.171Z,0
2017-05-30T03:12:17.440Z,0
2017-05-30T03:13:27.427Z,0
2017-05-30T03:14:37.096Z,0
2017-05-30T03:15:47.628Z,0
2017-05-30T03:16:57.911Z,0
2017-05-30T03:18:08.205Z,0
2017-05-30T03:19:18.507Z,0
2017-05-30T03:20:28.788Z,0
2017-05-30T03:21:39.324Z,0
2017-05-30T03:22:49.299Z,0
2017-05-30T03:23:59.585Z,0
2017-05-30T03:25:09.868Z,0
2017-05-30T03:26:19.862Z,0
2017-05-30T03:27:30.090Z,0
2017-05-30T03:28:40.371Z,0
2017-05-30T03:29:50.658Z,0
2017-05-30T03:31:00.935Z,0
2017-05-30T03:32:11.235Z,0
2017-05-30T03:33:21.463Z,0
2017-05-30T03:34:31.747Z,0
2017-05-30T03:35:41.711Z,0
2017-05-30T03:36:51.694Z,0
2017-05-30T03:38:01.664Z,0
2017-05-30T03:39:11.892Z,0
2017-05-30T03:40:22.176Z,0
2017-05-30T03:41:32.464Z,0
2017-05-30T03:42:42.440Z,0
2017-05-30T03:43:52.720Z,0
2017-05-30T03:45:03.250Z,0
2017-05-30T03:46:13.538Z,0
2017-05-30T03:47:23.838Z,0
2017-05-30T03:48:34.123Z,0
2017-05-30T03:49:44.408Z,0
2017-05-30T03:50:54.632Z,0
2017-05-30T03:52:04.917Z,0
2017-05-30T03:53:15.202Z,15
2017-05-30T03:54:25.497Z,40
2017-05-30T03:55:35.773Z,40
2017-05-30T03:56:46.317Z,45
2017-05-30T03:57:56.640Z,45
2017-05-30T03:59:06.299Z,50
2017-05-30T04:00:16.580Z,50
2017-05-30T04:01:26.867Z,50
2017-05-30T04:02:37.094Z,50
2017-05-30T04:03:47.375Z,50
2017-05-30T04:04:57.363Z,50
2017-05-30T04:06:07.652Z,50
2017-05-30T04:07:17.623Z,55
2017-05-30T04:08:27.873Z,50
2017-05-30T04:09:37.846Z,50
2017-05-30T04:10:47.506Z,55
2017-05-30T04:11:57.791Z,55
2017-05-30T04:13:08.071Z,50
2017-05-30T04:14:18.657Z,55
2017-05-30T04:15:28.944Z,50
2017-05-30T04:16:39.227Z,55
2017-05-30T04:17:49.552Z,60
2017-05-30T04:18:59.528Z,65
2017-05-30T04:20:09.755Z,65
2017-05-30T04:21:20.034Z,65
2017-05-30T04:22:30.006Z,65
2017-05-30T04:23:40.303Z,60
2017-05-30T04:24:50.590Z,60
2017-05-30T04:26:00.511Z,50
2017-05-30T04:27:10.488Z,50
2017-05-30T04:28:20.777Z,55
2017-05-30T04:29:31.114Z,60
2017-05-30T04:30:41.083Z,65
2017-05-30T04:31:51.685Z,55
2017-05-30T04:33:01.979Z,55
2017-05-30T04:34:12.273Z,55
2017-05-30T04:35:22.243Z,55
2017-05-30T04:36:32.239Z,85
2017-05-30T04:37:42.780Z,90
2017-05-30T04:38:52.766Z,90
2017-05-30T04:40:03.050Z,90
2017-05-30T04:41:12.717Z,90
2017-05-30T04:42:23.009Z,85
2017-05-30T04:43:33.231Z,85
2017-05-30T04:44:43.524Z,80
2017-05-30T04:45:53.849Z,90
2017-05-30T04:47:03.822Z,90
2017-05-30T04:48:14.113Z,90
2017-05-30T04:49:24.381Z,80
2017-05-30T04:50:34.353Z,95
2017-05-30T04:51:44.666Z,90
2017-05-30T04:52:54.956Z,80
2017-05-30T04:54:05.253Z,100
2017-05-30T04:55:15.798Z,100
2017-05-30T04:56:25.475Z,100
2017-05-30T04:57:35.772Z,100
2017-05-30T04:58:45.756Z,105
2017-05-30T04:59:56.042Z,105
2017-05-30T05:01:06.597Z,105
2017-05-30T05:02:16.575Z,105
2017-05-30T05:03:26.543Z,105
2017-05-30T05:04:36.829Z,110
2017-05-30T05:05:47.125Z,110
2017-05-30T05:06:57.349Z,110
2017-05-30T05:08:07.318Z,110
2017-05-30T05:09:17.608Z,115
2017-05-30T05:10:27.903Z,110
2017-05-30T05:11:38.195Z,115
2017-05-30T05:12:48.747Z,115
2017-05-30T05:13:58.413Z,115
2017-05-30T05:15:08.713Z,115
2017-05-30T05:16:19.019Z,115
2017-05-30T05:17:29.314Z,110
2017-05-30T05:18:39.546Z,110
2017-05-30T05:19:49.217Z,110
2017-05-30T05:20:59.183Z,100
2017-05-30T05:22:09.475Z,110
2017-05-30T05:23:19.762Z,115
2017-05-30T05:24:30.354Z,115
2017-05-30T05:25:40.849Z,115
2017-05-30T05:26:50.845Z,115
2017-05-30T05:28:01.133Z,115
2017-05-30T05:29:11.418Z,115
2017-05-30T05:30:22.009Z,115
2017-05-30T05:31:32.306Z,115
2017-05-30T05:32:42.607Z,115
2017-05-30T05:33:52.914Z,115
2017-05-30T05:35:03.240Z,115
2017-05-30T05:36:13.798Z,115
2017-05-30T05:37:24.098Z,115
2017-05-30T05:38:34.082Z,115
2017-05-30T05:39:44.372Z,115
2017-05-30T05:40:54.668Z,115
2017-05-30T05:42:05.217Z,115
2017-05-30T05:43:15.194Z,115
2017-05-30T05:44:25.173Z,115
2017-05-30T05:45:35.156Z,115
2017-05-30T05:46:45.447Z,115
2017-05-30T05:47:55.678Z,115
2017-05-30T05:49:05.984Z,115
2017-05-30T05:50:16.306Z,115
2017-05-30T05:51:26.584Z,115
2017-05-30T05:52:36.880Z,115
2017-05-30T05:53:47.416Z,115
2017-05-30T05:54:57.738Z,120
2017-05-30T05:56:07.733Z,120
2017-05-30T05:57:18.028Z,120
2017-05-30T05:58:28.313Z,115
2017-05-30T05:59:38.850Z,115
2017-05-30T06:00:48.839Z,115
2017-05-30T06:01:58.836Z,115
2017-05-30T06:03:09.137Z,110
2017-05-30T06:04:18.825Z,115
2017-05-30T06:05:29.059Z,115
2017-05-30T06:06:39.370Z,115
2017-05-30T06:07:49.701Z,115
2017-05-30T06:09:00.004Z,115
2017-05-30T06:10:10.347Z,115
2017-05-30T06:11:20.633Z,115
2017-05-30T06:12:30.625Z,115
2017-05-30T06:13:40.670Z,115
2017-05-30T06:14:51.003Z,115
2017-05-30T06:16:00.999Z,115
2017-05-30T06:17:11.244Z,120
2017-05-30T06:18:21.552Z,120
2017-05-30T06:19:31.547Z,120
2017-05-30T06:20:41.239Z,120
2017-05-30T06:21:51.551Z,120
2017-05-30T06:23:02.156Z,120
2017-05-30T06:24:12.137Z,125
2017-05-30T06:25:22.439Z,125
2017-05-30T06:26:32.740Z,125
2017-05-30T06:27:43.046Z,125
2017-05-30T06:28:53.610Z,120
2017-05-30T06:30:04.192Z,115
2017-05-30T06:31:14.509Z,115
2017-05-30T06:32:24.863Z,115
2017-05-30T06:33:35.166Z,115
2017-05-30T06:34:45.725Z,120
2017-05-30T06:35:56.050Z,120
2017-05-30T06:37:06.360Z,120
2017-05-30T06:38:16.375Z,120
2017-05-30T06:39:26.732Z,130
2017-05-30T06:40:37.305Z,125
2017-05-30T06:41:47.658Z,120
2017-05-30T06:42:57.966Z,110
2017-05-30T06:44:08.214Z,100
2017-05-30T06:45:18.558Z,100
2017-05-30T06:46:29.117Z,125
2017-05-30T06:47:39.417Z,120
2017-05-30T06:48:49.794Z,120
2017-05-30T06:49:59.474Z,125
2017-05-30T06:51:09.785Z,130
2017-05-30T06:52:20.357Z,130
2017-05-30T06:53:30.654Z,115
2017-05-30T06:54:40.648Z,120
2017-05-30T06:55:50.730Z,125
2017-05-30T06:57:00.453Z,140
2017-05-30T06:58:10.739Z,145
2017-05-30T06:59:21.041Z,135
2017-05-30T07:00:31.364Z,135
2017-05-30T07:01:41.033Z,135
2017-05-30T07:02:51.355Z,135
2017-05-30T07:04:01.973Z,140
2017-05-30T07:05:12.293Z,135
2017-05-30T07:06:22.623Z,130
2017-05-30T07:07:32.636Z,145
2017-05-30T07:08:42.638Z,130
2017-05-30T07:09:52.884Z,125
2017-05-30T07:11:03.202Z,120
2017-05-30T07:12:13.499Z,105
2017-05-30T07:13:23.802Z,120
2017-05-30T07:14:33.494Z,100
2017-05-30T07:15:44.137Z,100
2017-05-30T07:16:54.135Z,110
2017-05-30T07:18:04.129Z,130
2017-05-30T07:19:14.432Z,135
2017-05-30T07:20:24.122Z,135
2017-05-30T07:21:34.697Z,140
2017-05-30T07:22:45.044Z,145
2017-05-30T07:23:55.355Z,145
2017-05-30T07:25:05.664Z,140
2017-05-30T07:26:15.960Z,115
2017-05-30T07:27:26.512Z,130
2017-05-30T07:28:36.815Z,125
2017-05-30T07:29:47.138Z,135
2017-05-30T07:30:57.117Z,130
2017-05-30T07:32:07.404Z,130
2017-05-30T07:33:17.944Z,140
2017-05-30T07:34:28.252Z,145
2017-05-30T07:35:38.552Z,140
2017-05-30T07:36:48.855Z,145
2017-05-30T07:37:59.167Z,160
2017-05-30T07:39:09.406Z,150
2017-05-30T07:40:19.694Z,165
2017-05-30T07:41:29.376Z,140
2017-05-30T07:42:39.873Z,150
2017-05-30T07:43:50.186Z,155
2017-05-30T07:45:00.418Z,160
2017-05-30T07:46:10.408Z,160
2017-05-30T07:47:20.391Z,135
2017-05-30T07:48:30.688Z,135
2017-05-30T07:49:40.973Z,155
2017-05-30T07:50:50.893Z,165
2017-05-30T07:52:01.211Z,165
2017-05-30T07:53:11.511Z,155
2017-05-30T07:54:21.503Z,145
2017-05-30T07:55:31.813Z,150
2017-05-30T07:56:42.387Z,140
2017-05-30T07:57:52.682Z,140
2017-05-30T07:59:02.977Z,145
2017-05-30T08:00:13.035Z,135
2017-05-30T08:01:23.352Z,130
2017-05-30T08:02:33.924Z,125
2017-05-30T08:03:43.965Z,120
2017-05-30T08:04:53.952Z,125
2017-05-30T08:06:04.394Z,120
2017-05-30T08:07:14.749Z,115
2017-05-30T08:08:24.989Z,110
2017-05-30T08:09:35.351Z,110
2017-05-30T08:10:45.355Z,125
2017-05-30T08:11:55.908Z,135
2017-05-30T08:13:05.909Z,135
2017-05-30T08:14:16.488Z,130
2017-05-30T08:15:26.697Z,125
2017-05-30T08:16:36.685Z,120
2017-05-30T08:17:46.715Z,120
2017-05-30T08:18:57.019Z,120
2017-05-30T08:20:07.647Z,120
2017-05-30T08:21:18.006Z,120
2017-05-30T08:22:28.012Z,120
2017-05-30T08:23:38.329Z,120
2017-05-30T08:24:48.308Z,125
2017-05-30T08:25:58.607Z,115
2017-05-30T08:27:08.957Z,125
2017-05-30T08:28:18.703Z,120
2017-05-30T08:29:29.028Z,100
2017-05-30T08:30:39.019Z,105
2017-05-30T08:31:49.597Z,105
2017-05-30T08:32:59.983Z,100
2017-05-30T08:34:10.321Z,115
2017-05-30T08:35:20.633Z,130
2017-05-30T08:36:30.698Z,145
2017-05-30T08:37:40.651Z,140
2017-05-30T08:38:50.658Z,130
2017-05-30T08:40:00.701Z,120
2017-05-30T08:41:10.689Z,115
2017-05-30T08:42:20.702Z,115
2017-05-30T08:43:31.255Z,120
2017-05-30T08:44:41.540Z,120
2017-05-30T08:45:51.613Z,115
2017-05-30T08:47:01.601Z,110
2017-05-30T08:48:11.924Z,110
2017-05-30T08:49:22.166Z,110
2017-05-30T08:50:32.463Z,110
2017-05-30T08:51:42.775Z,110
2017-05-30T08:52:52.764Z,110
2017-05-30T08:54:03.103Z,110
2017-05-30T08:55:13.666Z,110
2017-05-30T08:56:23.640Z,115
2017-05-30T08:57:33.633Z,115
2017-05-30T08:58:43.955Z,120
2017-05-30T08:59:54.307Z,115
2017-05-30T09:01:04.542Z,125
2017-05-30T09:02:14.846Z,125
2017-05-30T09:03:25.149Z,115
2017-05-30T09:04:35.443Z,110
2017-05-30T09:05:45.419Z,110
2017-05-30T09:06:55.951Z,115
2017-05-30T09:08:06.244Z,115
2017-05-30T09:09:16.243Z,110
2017-05-30T09:10:26.236Z,110
2017-05-30T09:11:36.217Z,105
2017-05-30T09:12:46.458Z,110
2017-05-30T09:13:56.124Z,115
2017-05-30T09:15:06.429Z,115
2017-05-30T09:16:16.725Z,115
2017-05-30T09:17:27.033Z,115
2017-05-30T09:18:37.596Z,120
2017-05-30T09:19:47.908Z,120
2017-05-30T09:20:57.883Z,120
2017-05-30T09:22:08.229Z,125
2017-05-30T09:23:18.220Z,135
2017-05-30T09:24:28.817Z,130
2017-05-30T09:25:39.126Z,130
2017-05-30T09:26:49.460Z,125
2017-05-30T09:27:59.452Z,130
2017-05-30T09:29:09.750Z,135
2017-05-30T09:30:20.322Z,135
2017-05-30T09:31:30.616Z,135
2017-05-30T09:32:40.277Z,140
2017-05-30T09:33:50.578Z,145
2017-05-30T09:35:00.572Z,145
2017-05-30T09:36:10.500Z,155
2017-05-30T09:37:20.801Z,165
2017-05-30T09:38:30.785Z,170
2017-05-30T09:39:40.764Z,160
2017-05-30T09:40:51.070Z,170
2017-05-30T09:42:00.996Z,175
2017-05-30T09:43:11.302Z,170
2017-05-30T09:44:21.623Z,160
2017-05-30T09:45:31.932Z,160
2017-05-30T09:46:41.934Z,155
2017-05-30T09:47:51.554Z,170
2017-05-30T09:49:01.785Z,170
2017-05-30T09:50:11.773Z,165
2017-05-30T09:51:22.078Z,155
2017-05-30T09:52:32.363Z,150
2017-05-30T09:53:42.916Z,140
2017-05-30T09:54:52.912Z,145
2017-05-30T09:56:03.260Z,150
2017-05-30T09:57:13.281Z,145
2017-05-30T09:58:23.290Z,150
2017-05-30T09:59:33.830Z,160
2017-05-30T10:00:43.872Z,155
2017-05-30T10:01:54.225Z,155
2017-05-30T10:03:04.534Z,170
2017-05-30T10:04:14.829Z,180
2017-05-30T10:05:25.074Z,175
2017-05-30T10:06:35.062Z,170
2017-05-30T10:07:45.049Z,165
2017-05-30T10:08:55.335Z,150
2017-05-30T10:10:05.627Z,140
2017-05-30T10:11:16.166Z,150
2017-05-30T10:12:26.165Z,155
2017-05-30T10:13:36.151Z,175
2017-05-30T10:14:46.439Z,160
2017-05-30T10:15:56.737Z,135
2017-05-30T10:17:06.969Z,135
2017-05-30T10:18:17.269Z,165
2017-05-30T10:19:27.256Z,180
2017-05-30T10:20:37.241Z,200
2017-05-30T10:21:46.925Z,180
2017-05-30T10:22:57.468Z,150
2017-05-30T10:24:07.768Z,195
2017-05-30T10:25:18.084Z,235
2017-05-30T10:26:28.358Z,240
2017-05-30T10:27:37.718Z,240
2017-05-30T10:28:48.268Z,225
2017-05-30T10:29:58.558Z,220
2017-05-30T10:31:08.854Z,220
2017-05-30T10:32:19.140Z,220
2017-05-30T10:33:29.119Z,230
2017-05-30T10:34:39.347Z,225
2017-05-30T10:35:49.658Z,215
2017-05-30T10:36:59.951Z,225
2017-05-30T10:38:09.933Z,240
2017-05-30T10:39:20.240Z,245
2017-05-30T10:40:30.797Z,250
2017-05-30T10:41:40.469Z,260
2017-05-30T10:42:50.759Z,260
2017-05-30T10:44:01.067Z,185
2017-05-30T10:45:11.359Z,120
2017-05-30T10:46:21.898Z,130
2017-05-30T10:47:31.878Z,160
2017-05-30T10:48:41.549Z,160
2017-05-30T10:49:51.852Z,145
2017-05-30T10:51:02.145Z,155
2017-05-30T10:52:12.698Z,170
2017-05-30T10:53:23.000Z,180
2017-05-30T10:54:33.292Z,180
2017-05-30T10:55:43.276Z,175
2017-05-30T10:56:53.588Z,165
2017-05-30T10:58:04.118Z,155
2017-05-30T10:59:14.406Z,120
2017-05-30T11:00:24.717Z,65
2017-05-30T11:01:35.029Z,55
2017-05-30T11:02:45.341Z,60
2017-05-30T11:03:55.880Z,65
2017-05-30T11:05:06.172Z,50
2017-05-30T11:06:16.155Z,50
2017-05-30T11:07:26.441Z,45
2017-05-30T11:08:36.458Z,20
2017-05-30T11:09:46.682Z,50
2017-05-30T11:10:56.037Z,45
2017-05-30T11:12:06.347Z,50
2017-05-30T11:13:16.672Z,65
2017-05-30T11:14:26.984Z,70
2017-05-30T11:15:37.209Z,65
2017-05-30T11:16:47.190Z,30
2017-05-30T11:17:56.858Z,10
2017-05-30T11:19:07.146Z,5
2017-05-30T11:20:17.128Z,5
2017-05-30T11:21:27.357Z,10
2017-05-30T11:22:37.653Z,20
2017-05-30T11:23:47.641Z,20
2017-05-30T11:24:57.928Z,15
2017-05-30T11:26:07.607Z,20
2017-05-30T11:27:18.171Z,25
2017-05-30T11:28:28.461Z,25
2017-05-30T11:29:38.788Z,20
2017-05-30T11:30:49.107Z,20
2017-05-30T11:31:59.399Z,25
2017-05-30T11:33:09.658Z,25
2017-05-30T11:34:19.342Z,25
2017-05-30T11:35:29.339Z,25
2017-05-30T11:36:39.643Z,25
2017-05-30T11:37:49.940Z,25
2017-05-30T11:39:00.168Z,25
2017-05-30T11:40:10.461Z,25
2017-05-30T11:41:20.455Z,25
2017-05-30T11:42:30.748Z,30
2017-05-30T11:43:40.721Z,30
2017-05-30T11:44:51.269Z,35
2017-05-30T11:46:01.309Z,35
2017-05-30T11:47:11.293Z,35
2017-05-30T11:48:21.587Z,40
2017-05-30T11:49:31.594Z,40
2017-05-30T11:50:42.144Z,40
2017-05-30T11:51:51.497Z,40
2017-05-30T11:53:01.784Z,40
2017-05-30T11:54:12.072Z,40
2017-05-30T11:55:21.749Z,40
2017-05-30T11:56:32.303Z,40
2017-05-30T11:57:42.588Z,40
2017-05-30T11:58:52.561Z,45
2017-05-30T12:00:02.541Z,60
2017-05-30T12:01:12.514Z,65
2017-05-30T12:02:22.745Z,70
2017-05-30T12:03:32.750Z,70
2017-05-30T12:04:43.076Z,60
2017-05-30T12:05:53.361Z,50
2017-05-30T12:07:03.648Z,45
2017-05-30T12:08:14.183Z,45
2017-05-30T12:09:24.483Z,50
2017-05-30T12:10:34.781Z,60
2017-05-30T12:11:45.072Z,65
2017-05-30T12:12:55.077Z,75
2017-05-30T12:14:05.610Z,85
2017-05-30T12:15:15.897Z,90
2017-05-30T12:16:26.182Z,105
2017-05-30T12:17:36.482Z,120
2017-05-30T12:18:46.139Z,125
2017-05-30T12:19:56.690Z,135
2017-05-30T12:21:07.001Z,140
2017-05-30T12:22:17.292Z,150
2017-05-30T12:23:27.591Z,155
2017-05-30T12:24:37.566Z,165
2017-05-30T12:25:48.114Z,175
2017-05-30T12:26:58.639Z,185
2017-05-30T12:28:08.924Z,200
2017-05-30T12:29:19.227Z,200
2017-05-30T12:30:29.537Z,200
2017-05-30T12:31:40.075Z,190
2017-05-30T12:32:50.059Z,185
2017-05-30T12:34:00.048Z,185
2017-05-30T12:35:10.333Z,185
2017-05-30T12:36:20.619Z,180
2017-05-30T12:37:31.155Z,170
2017-05-30T12:38:41.446Z,160
2017-05-30T12:39:51.443Z,150
2017-05-30T12:41:01.420Z,145
2017-05-30T12:42:11.712Z,140
2017-05-30T12:43:22.696Z,140
2017-05-30T12:44:33.005Z,135
2017-05-30T12:45:43.308Z,135
2017-05-30T12:46:53.306Z,140
2017-05-30T12:48:02.975Z,150
2017-05-30T12:49:13.519Z,165
2017-05-30T12:50:23.548Z,165
2017-05-30T12:51:33.833Z,165
2017-05-30T12:52:44.130Z,155
2017-05-30T12:53:54.465Z,155
2017-05-30T12:55:04.695Z,155
2017-05-30T12:56:14.668Z,160
2017-05-30T12:57:24.629Z,165
2017-05-30T12:58:34.953Z,170
2017-05-30T12:59:45.241Z,170
2017-05-30T13:00:55.790Z,170
2017-05-30T13:02:06.093Z,175
2017-05-30T13:03:16.392Z,180
2017-05-30T13:04:26.378Z,165
2017-05-30T13:05:36.669Z,150
2017-05-30T13:06:47.218Z,140
2017-05-30T13:07:57.205Z,135
2017-05-30T13:09:07.527Z,135
2017-05-30T13:10:17.828Z,140
2017-05-30T13:11:28.123Z,145
2017-05-30T13:12:38.370Z,155
2017-05-30T13:13:48.345Z,160
2017-05-30T13:14:58.319Z,155
2017-05-30T13:16:08.615Z,160
2017-05-30T13:17:18.596Z,155
2017-05-30T13:18:29.138Z,155
2017-05-30T13:19:38.847Z,155
2017-05-30T13:20:49.156Z,160
2017-05-30T13:21:59.470Z,165
2017-05-30T13:23:09.763Z,175
2017-05-30T13:24:20.331Z,180
2017-05-30T13:25:30.621Z,180
2017-05-30T13:26:40.919Z,175
2017-05-30T13:27:50.893Z,170
2017-05-30T13:29:01.193Z,170
2017-05-30T13:30:11.423Z,165
2017-05-30T13:31:21.724Z,160
2017-05-30T13:32:31.745Z,150
2017-05-30T13:33:42.055Z,140
2017-05-30T13:34:52.353Z,135
2017-05-30T13:36:02.603Z,125
2017-05-30T13:37:12.579Z,120
2017-05-30T13:38:22.583Z,125
2017-05-30T13:39:32.594Z,130
2017-05-30T13:40:42.585Z,140
2017-05-30T13:41:53.120Z,140
2017-05-30T13:43:03.414Z,140
2017-05-30T13:44:13.708Z,140
2017-05-30T13:45:23.695Z,140
2017-05-30T13:46:34.005Z,140
2017-05-30T13:47:44.560Z,145
2017-05-30T13:48:54.844Z,150
2017-05-30T13:50:04.838Z,150
2017-05-30T13:51:15.138Z,140
2017-05-30T13:52:25.130Z,130
2017-05-30T13:53:35.373Z,130
2017-05-30T13:54:45.670Z,130
2017-05-30T13:55:55.651Z,135
2017-05-30T13:57:05.326Z,140
2017-05-30T13:58:15.618Z,140
2017-05-30T13:59:26.163Z,145
2017-05-30T14:00:36.447Z,145
2017-05-30T14:01:46.747Z,150
2017-05-30T14:02:57.046Z,155
2017-05-30T14:04:07.015Z,155
2017-05-30T14:05:17.558Z,160
2017-05-30T14:06:27.530Z,165
2017-05-30T14:07:37.840Z,175
2017-05-30T14:08:48.125Z,165
2017-05-30T14:09:58.140Z,155
2017-05-30T14:11:08.985Z,150
2017-05-30T14:12:19.273Z,145
2017-05-30T14:13:29.645Z,130
2017-05-30T14:14:39.940Z,130
2017-05-30T14:15:50.257Z,130
2017-05-30T14:17:00.802Z,130
2017-05-30T14:18:11.082Z,120
2017-05-30T14:19:21.082Z,110
2017-05-30T14:20:31.378Z,105
2017-05-30T14:21:41.686Z,110
2017-05-30T14:22:52.217Z,130
2017-05-30T14:24:02.205Z,150
2017-05-30T14:25:12.495Z,145
2017-05-30T14:26:22.478Z,135
2017-05-30T14:27:32.472Z,110
2017-05-30T14:28:43.074Z,100
2017-05-30T14:29:53.064Z,115
2017-05-30T14:31:03.373Z,140
2017-05-30T14:32:13.659Z,155
2017-05-30T14:33:23.954Z,155
2017-05-30T14:34:34.503Z,155
2017-05-30T14:35:44.809Z,155
2017-05-30T14:36:55.110Z,150
2017-05-30T14:38:05.405Z,140
2017-05-30T14:39:15.705Z,115
2017-05-30T14:40:25.626Z,100
2017-05-30T14:41:35.924Z,100
2017-05-30T14:42:45.607Z,100
2017-05-30T14:43:55.905Z,95
2017-05-30T14:45:06.200Z,105
2017-05-30T14:46:16.800Z,95
2017-05-30T14:47:27.091Z,90
2017-05-30T14:48:37.391Z,100
2017-05-30T14:49:47.700Z,110
2017-05-30T14:50:57.368Z,125
2017-05-30T14:52:07.915Z,130
2017-05-30T14:53:18.213Z,140
2017-05-30T14:54:28.202Z,140
2017-05-30T14:55:38.513Z,135
2017-05-30T14:56:48.805Z,130
2017-05-30T14:57:59.345Z,115
2017-05-30T14:59:09.333Z,100
2017-05-30T15:00:19.632Z,85
2017-05-30T15:01:29.929Z,80
2017-05-30T15:02:40.230Z,75
2017-05-30T15:03:50.769Z,70
2017-05-30T15:05:01.071Z,75
2017-05-30T15:06:11.364Z,75
2017-05-30T15:07:21.382Z,80
2017-05-30T15:08:31.380Z,90
2017-05-30T15:09:41.939Z,95
2017-05-30T15:10:51.959Z,95
2017-05-30T15:12:02.246Z,105
2017-05-30T15:13:12.238Z,120
2017-05-30T15:14:21.924Z,130
2017-05-30T15:15:32.484Z,120
2017-05-30T15:16:42.464Z,120
2017-05-30T15:17:52.781Z,120
2017-05-30T15:19:02.775Z,125
2017-05-30T15:20:13.090Z,120
2017-05-30T15:21:23.329Z,105
2017-05-30T15:22:33.641Z,100
2017-05-30T15:23:43.633Z,90
2017-05-30T15:24:53.976Z,85
2017-05-30T15:26:03.957Z,80
2017-05-30T15:27:13.876Z,80
2017-05-30T15:28:24.183Z,80
2017-05-30T15:29:34.476Z,80
2017-05-30T15:30:44.457Z,85
2017-05-30T15:31:54.144Z,95
2017-05-30T15:33:04.693Z,100
2017-05-30T15:34:14.979Z,100
2017-05-30T15:35:24.961Z,100
2017-05-30T15:36:34.948Z,95
2017-05-30T15:37:45.231Z,90
2017-05-30T15:38:55.776Z,85
2017-05-30T15:40:06.077Z,75
2017-05-30T15:41:16.367Z,70
2017-05-30T15:42:26.346Z,70
2017-05-30T15:43:36.635Z,70
2017-05-30T15:44:46.868Z,70
2017-05-30T15:45:56.848Z,65
2017-05-30T15:47:06.830Z,60
2017-05-30T15:48:16.823Z,60
2017-05-30T15:49:27.119Z,65
2017-05-30T15:50:37.658Z,65
2017-05-30T15:51:47.954Z,65
2017-05-30T15:52:58.264Z,60
2017-05-30T15:54:08.563Z,60
2017-05-30T15:55:18.916Z,60
2017-05-30T15:56:29.496Z,60
2017-05-30T15:57:39.792Z,60
2017-05-30T15:58:50.097Z,65
2017-05-30T16:00:00.400Z,65
2017-05-30T16:01:10.691Z,65
2017-05-30T16:02:21.223Z,60
2017-05-30T16:03:31.206Z,55
2017-05-30T16:04:41.184Z,55
2017-05-30T16:05:51.477Z,55
2017-05-30T16:07:01.772Z,55
2017-05-30T16:08:12.300Z,55
2017-05-30T16:09:22.603Z,50
2017-05-30T16:10:32.896Z,50
2017-05-30T16:11:43.190Z,45
2017-05-30T16:12:53.482Z,45
2017-05-30T16:14:04.033Z,40
2017-05-30T16:15:14.311Z,35
2017-05-30T16:16:24.290Z,35
2017-05-30T16:17:34.612Z,35
2017-05-30T16:18:44.910Z,30
2017-05-30T16:19:55.463Z,30
2017-05-30T16:21:05.441Z,30
2017-05-30T16:22:15.746Z,30
2017-05-30T16:23:26.040Z,35
2017-05-30T16:24:36.332Z,35
2017-05-30T16:25:46.885Z,40
2017-05-30T16:26:57.221Z,40
2017-05-30T16:28:07.513Z,40
2017-05-30T16:29:17.497Z,45
2017-05-30T16:30:27.796Z,45